Flight Track Log - Related Links

Times and Time Zones

All times are in EDT time to prevent confusion due to time zone crossing. See the N830QS flight status page for this flight to view local times or setup timezone preferences in your user account.

Time Position Orientation Groundspeed Altitude Reporting Facility
EDT Latitude Longitude Course Direction KTS MPH feet Rate Location/Type
Sun 08:50:04 PM 33.6392 -117.8922 323° Northwest 174 200 2,100  Level Los Angeles Center
Sun 08:51:06 PM 33.5850 -117.9081 194° South 193 222 3,600 1,645 Climbing Los Angeles Center
Sun 08:52:08 PM 33.5369 -117.9508 217° Southwest 211 243 5,500 1,839 Climbing Los Angeles Center
Sun 08:53:10 PM 33.4842 -118.0003 218° Southwest 225 259 7,400 2,081 Climbing Los Angeles Center
Sun 08:54:12 PM 33.4233 -118.0625 220° Southwest 257 296 9,800 2,081 Climbing Los Angeles Center
Sun 08:55:00 PM 34.0325 -118.1931 323° Northwest  Level Estimated
Sun 08:55:14 PM 33.3736 -118.1697 241° Southwest 326 375 11,700  Level Los Angeles Center
Sun 08:56:16 PM 33.3736 -118.2864 270° West 345 397 13,300 1,790 Climbing Los Angeles Center
Sun 08:57:18 PM 33.4033 -118.3967 288° West 360 414 15,400 1,548 Climbing Los Angeles Center
Sun 08:58:20 PM 33.5031 -118.4231 348° North 376 433 16,500 1,258 Climbing Los Angeles Center
Sun 08:59:22 PM 33.6094 -118.4253 359° North 380 437 18,000 1,548 Climbing Los Angeles Center
Sun 09:00:24 PM 33.7167 -118.4297 358° North 376 433 19,700 1,597 Climbing Los Angeles Center
Sun 09:01:26 PM 33.8314 -118.4319 359° North 395 455 21,300 1,500 Climbing Los Angeles Center
Sun 09:02:28 PM 33.9428 -118.4392 357° North 398 458 22,800 1,258 Climbing Los Angeles Center
Sun 09:03:30 PM 34.0644 -118.4978 338° Northwest 428 493 23,900 1,258 Climbing Los Angeles Center
Sun 09:04:32 PM 34.1558 -118.5417 338° Northwest 407 468 25,400 1,016 Climbing Los Angeles Center
Sun 09:05:34 PM 34.2844 -118.6053 338° Northwest 417 480 26,000 339 Climbing Los Angeles Center
Sun 09:06:36 PM 34.4014 -118.6611 339° North 445 512 26,100 726 Climbing Los Angeles Center
Sun 09:07:38 PM 34.5147 -118.7172 338° Northwest 443 510 27,500 1,210 Climbing Los Angeles Center
Sun 09:08:40 PM 34.6264 -118.7739 337° Northwest 437 503 28,600 1,073 Climbing Los Angeles Center
Sun 09:09:41 PM 34.7406 -118.8306 338° Northwest 444 511 29,700 683 Climbing Los Angeles Center
Sun 09:10:43 PM 34.8681 -118.9247 329° Northwest 461 531 30,000 145 Climbing Los Angeles Center
Sun 09:11:45 PM 34.9572 -119.0125 321° Northwest 454 522 30,000  Level Los Angeles Center
Sun 09:12:47 PM 35.0569 -119.1086 322° Northwest 460 529 30,000  Level Los Angeles Center
Sun 09:13:49 PM 35.1583 -119.2078 321° Northwest 468 539 30,000  Level Los Angeles Center
Sun 09:14:50 PM 35.2806 -119.3256 322° Northwest 467 537 30,000  Level Los Angeles Center
Sun 09:15:52 PM 35.3806 -119.4256 321° Northwest 468 539 30,000  Level Los Angeles Center
Sun 09:16:54 PM 35.4828 -119.5256 321° Northwest 469 540 30,000  Level Los Angeles Center
Sun 09:17:56 PM 35.5861 -119.6303 321° Northwest 478 550 30,000  Level Los Angeles Center
Sun 09:18:58 PM 35.6881 -119.7317 321° Northwest 477 549 30,000  Level Los Angeles Center
Sun 09:19:59 PM 35.8114 -119.8561 321° Northwest 480 552 30,000  Level Los Angeles Center
Sun 09:21:01 PM 35.9131 -119.9597 320° Northwest 478 550 30,000  Level Los Angeles Center
Sun 09:22:03 PM 36.0164 -120.0642 321° Northwest 482 555 30,000  Level Los Angeles Center
Sun 09:23:05 PM 36.1197 -120.1692 321° Northwest 484 557 30,000  Level Los Angeles Center
Sun 09:24:07 PM 36.2236 -120.2750 321° Northwest 485 558 30,000  Level Los Angeles Center
Sun 09:25:25 PM 36.3669 -120.4197 321° Northwest 484 557 30,000 -514 Level Oakland Center
Sun 09:26:27 PM 36.4822 -120.5025 330° Northwest 483 556 28,800 -1,415 Descending Oakland Center
Sun 09:27:28 PM 36.6014 -120.5603 339° North 462 532 27,100 -1,721 Descending Oakland Center
Sun 09:28:29 PM 36.7219 -120.6161 340° North 463 533 25,300 -1,805 Descending Oakland Center
Sun 09:29:31 PM 36.8419 -120.6783 337° Northwest 450 518 23,400 -1,659 Descending Oakland Center
Sun 09:30:32 PM 36.9511 -120.7347 338° Northwest 427 491 21,900 -1,770 Descending Oakland Center
Sun 09:31:33 PM 37.0625 -120.7872 339° North 427 491 19,800 -2,118 Descending Oakland Center
Sun 09:32:31 PM 37.1833 -120.8333 343° North 391 450 17,700 -1,983 Descending Northern Cal TRACON
Sun 09:33:31 PM 37.2667 -120.9000 328° Northwest 401 461 15,900 -1,900 Descending Northern Cal TRACON
Sun 09:34:31 PM 37.3667 -120.9833 326° Northwest 386 444 13,900 -1,828 Descending Northern Cal TRACON
Sun 09:35:39 PM 37.4508 -121.0714 320° Northwest 373 429 12,000 -950 Descending Oakland Center
Sun 09:36:31 PM 37.5333 -121.1500 323° Northwest 373 429 12,000  Level Northern Cal TRACON
Sun 09:37:31 PM 37.6000 -121.2167 322° Northwest 362 417 12,000  Level Northern Cal TRACON
Sun 09:38:31 PM 37.6833 -121.3000 322° Northwest 348 400 12,000 -50 Level Northern Cal TRACON
Sun 09:39:31 PM 37.7667 -121.3833 322° Northwest 386 444 11,900 -750 Descending Northern Cal TRACON
Sun 09:40:31 PM 37.8333 -121.4500 322° Northwest 334 384 10,500 -1,422 Descending Northern Cal TRACON
Sun 09:41:46 PM 37.9181 -121.5325 322° Northwest 309 356 8,700 -1,412 Descending Oakland Center
Sun 09:42:47 PM 37.9794 -121.5969 320° Northwest 294 338 7,300 -1,122 Descending Oakland Center
Sun 09:43:49 PM 38.0086 -121.6800 294° West 273 314 6,400 -1,463 Descending Oakland Center
Sun 09:44:50 PM 38.0294 -121.7653 287° West 255 293 4,300 -1,180 Descending Oakland Center
Sun 09:45:51 PM 38.0381 -121.8483 278° West 246 283 4,000 -492 Descending Oakland Center
Sun 09:46:52 PM 38.0228 -121.9297 257° West 244 281 3,300 -927 Descending Oakland Center
Sun 09:47:54 PM 37.9758 -121.9800 220° Southwest 225 259 2,100 -1,073 Descending Oakland Center
Sun 09:48:55 PM 37.9625 -122.0317 252° West 186 214 1,100 -738 Descending Oakland Center
Sun 09:49:56 PM 37.9789 -122.0628 304° West 150 173 600 -492 Descending Oakland Center
Sun 09:51:00 PM 37.9833 -122.0500 North  Level FlightAware Approximate

Login

Don't have an account? Register now (free) for customized features, flight alerts, and more!